sensor_id;sensor_type;location;lat;lon;timestamp;P1;durP1;ratioP1;P2;durP2;ratioP2
24787;SDS011;12883;52.662;5.196;2023-03-04T00:02:12;3.23;;;3.23;;
24787;SDS011;12883;52.662;5.196;2023-03-04T00:04:37;2.63;;;2.63;;
24787;SDS011;12883;52.662;5.196;2023-03-04T00:07:02;3.13;;;3.13;;
24787;SDS011;12883;52.662;5.196;2023-03-04T00:09:28;2.87;;;2.87;;
24787;SDS011;12883;52.662;5.196;2023-03-04T00:11:53;3.23;;;3.23;;
24787;SDS011;12883;52.662;5.196;2023-03-04T00:14:18;2.70;;;2.70;;
24787;SDS011;12883;52.662;5.196;2023-03-04T00:16:44;3.70;;;3.70;;
24787;SDS011;12883;52.662;5.196;2023-03-04T00:19:09;4.13;;;4.03;;
24787;SDS011;12883;52.662;5.196;2023-03-04T00:21:35;3.20;;;3.20;;
24787;SDS011;12883;52.662;5.196;2023-03-04T00:24:00;3.47;;;3.47;;
24787;SDS011;12883;52.662;5.196;2023-03-04T00:26:26;2.77;;;2.77;;
24787;SDS011;12883;52.662;5.196;2023-03-04T00:28:51;3.13;;;3.13;;
24787;SDS011;12883;52.662;5.196;2023-03-04T00:31:16;2.90;;;2.90;;
24787;SDS011;12883;52.662;5.196;2023-03-04T00:33:42;2.60;;;2.60;;
24787;SDS011;12883;52.662;5.196;2023-03-04T00:36:08;2.33;;;2.33;;
24787;SDS011;12883;52.662;5.196;2023-03-04T00:38:34;3.03;;;3.03;;
24787;SDS011;12883;52.662;5.196;2023-03-04T00:40:59;3.50;;;3.50;;
24787;SDS011;12883;52.662;5.196;2023-03-04T00:43:25;3.27;;;3.27;;
24787;SDS011;12883;52.662;5.196;2023-03-04T00:45:50;2.40;;;2.40;;
24787;SDS011;12883;52.662;5.196;2023-03-04T00:48:15;2.37;;;2.37;;
24787;SDS011;12883;52.662;5.196;2023-03-04T00:50:41;2.50;;;2.50;;
24787;SDS011;12883;52.662;5.196;2023-03-04T00:53:07;3.10;;;3.10;;
24787;SDS011;12883;52.662;5.196;2023-03-04T00:55:33;3.13;;;3.13;;
24787;SDS011;12883;52.662;5.196;2023-03-04T00:57:58;2.90;;;2.90;;
24787;SDS011;12883;52.662;5.196;2023-03-04T01:00:24;2.57;;;2.57;;
24787;SDS011;12883;52.662;5.196;2023-03-04T01:02:49;2.97;;;2.97;;
24787;SDS011;12883;52.662;5.196;2023-03-04T01:05:15;4.00;;;4.00;;
24787;SDS011;12883;52.662;5.196;2023-03-04T01:07:40;2.20;;;2.20;;
24787;SDS011;12883;52.662;5.196;2023-03-04T01:10:06;3.00;;;3.00;;
24787;SDS011;12883;52.662;5.196;2023-03-04T01:12:33;3.07;;;3.07;;
24787;SDS011;12883;52.662;5.196;2023-03-04T01:14:58;2.83;;;2.83;;
24787;SDS011;12883;52.662;5.196;2023-03-04T01:17:24;2.63;;;2.63;;
24787;SDS011;12883;52.662;5.196;2023-03-04T01:19:49;2.70;;;2.70;;
24787;SDS011;12883;52.662;5.196;2023-03-04T01:22:14;2.40;;;2.40;;
24787;SDS011;12883;52.662;5.196;2023-03-04T01:24:42;2.87;;;2.87;;
24787;SDS011;12883;52.662;5.196;2023-03-04T01:27:08;2.73;;;2.73;;
24787;SDS011;12883;52.662;5.196;2023-03-04T01:29:33;2.13;;;2.13;;
24787;SDS011;12883;52.662;5.196;2023-03-04T01:31:58;2.60;;;2.60;;
24787;SDS011;12883;52.662;5.196;2023-03-04T01:34:24;2.77;;;2.77;;
24787;SDS011;12883;52.662;5.196;2023-03-04T01:36:49;2.70;;;2.70;;
24787;SDS011;12883;52.662;5.196;2023-03-04T01:39:14;2.67;;;2.67;;
24787;SDS011;12883;52.662;5.196;2023-03-04T01:41:40;2.20;;;2.20;;
24787;SDS011;12883;52.662;5.196;2023-03-04T01:44:05;2.87;;;2.87;;
24787;SDS011;12883;52.662;5.196;2023-03-04T01:46:30;3.60;;;3.60;;
24787;SDS011;12883;52.662;5.196;2023-03-04T01:48:56;2.77;;;2.70;;
24787;SDS011;12883;52.662;5.196;2023-03-04T01:51:22;2.83;;;2.83;;
24787;SDS011;12883;52.662;5.196;2023-03-04T01:53:48;2.37;;;2.37;;
24787;SDS011;12883;52.662;5.196;2023-03-04T02:01:38;2.10;;;2.10;;
24787;SDS011;12883;52.662;5.196;2023-03-04T02:04:05;2.80;;;2.80;;
24787;SDS011;12883;52.662;5.196;2023-03-04T02:06:32;3.07;;;3.07;;
24787;SDS011;12883;52.662;5.196;2023-03-04T02:08:58;2.27;;;2.27;;
24787;SDS011;12883;52.662;5.196;2023-03-04T02:11:24;3.07;;;3.07;;
24787;SDS011;12883;52.662;5.196;2023-03-04T02:13:49;2.67;;;2.67;;
24787;SDS011;12883;52.662;5.196;2023-03-04T02:16:16;2.17;;;2.17;;
24787;SDS011;12883;52.662;5.196;2023-03-04T02:18:41;2.37;;;2.37;;
24787;SDS011;12883;52.662;5.196;2023-03-04T02:21:12;2.17;;;2.17;;
24787;SDS011;12883;52.662;5.196;2023-03-04T02:23:45;2.07;;;2.07;;
24787;SDS011;12883;52.662;5.196;2023-03-04T02:26:32;2.13;;;2.13;;
24787;SDS011;12883;52.662;5.196;2023-03-04T02:28:59;1.97;;;1.97;;
24787;SDS011;12883;52.662;5.196;2023-03-04T02:31:38;2.53;;;2.53;;
24787;SDS011;12883;52.662;5.196;2023-03-04T02:34:05;2.10;;;2.10;;
24787;SDS011;12883;52.662;5.196;2023-03-04T02:36:35;2.80;;;2.80;;
24787;SDS011;12883;52.662;5.196;2023-03-04T02:39:05;2.77;;;2.77;;
24787;SDS011;12883;52.662;5.196;2023-03-04T02:41:36;2.97;;;2.97;;
24787;SDS011;12883;52.662;5.196;2023-03-04T02:44:02;3.17;;;3.17;;
24787;SDS011;12883;52.662;5.196;2023-03-04T02:46:27;2.83;;;2.83;;
24787;SDS011;12883;52.662;5.196;2023-03-04T02:48:52;2.50;;;2.50;;
24787;SDS011;12883;52.662;5.196;2023-03-04T02:51:18;2.20;;;2.20;;
24787;SDS011;12883;52.662;5.196;2023-03-04T02:53:43;3.10;;;3.10;;
24787;SDS011;12883;52.662;5.196;2023-03-04T02:56:09;2.43;;;2.43;;
24787;SDS011;12883;52.662;5.196;2023-03-04T02:58:34;2.87;;;2.87;;
24787;SDS011;12883;52.662;5.196;2023-03-04T03:01:00;2.30;;;2.30;;
24787;SDS011;12883;52.662;5.196;2023-03-04T03:03:25;2.57;;;2.57;;
24787;SDS011;12883;52.662;5.196;2023-03-04T03:05:51;2.30;;;2.30;;
24787;SDS011;12883;52.662;5.196;2023-03-04T03:08:18;2.70;;;2.70;;
24787;SDS011;12883;52.662;5.196;2023-03-04T03:10:43;2.27;;;2.20;;
24787;SDS011;12883;52.662;5.196;2023-03-04T03:13:08;2.80;;;2.80;;
24787;SDS011;12883;52.662;5.196;2023-03-04T03:15:34;2.67;;;2.67;;
24787;SDS011;12883;52.662;5.196;2023-03-04T03:17:59;2.63;;;2.63;;
24787;SDS011;12883;52.662;5.196;2023-03-04T03:20:24;2.87;;;2.87;;
24787;SDS011;12883;52.662;5.196;2023-03-04T03:22:50;2.00;;;2.00;;
24787;SDS011;12883;52.662;5.196;2023-03-04T03:25:15;2.27;;;2.27;;
24787;SDS011;12883;52.662;5.196;2023-03-04T03:27:41;2.07;;;2.07;;
24787;SDS011;12883;52.662;5.196;2023-03-04T03:30:07;2.60;;;2.60;;
24787;SDS011;12883;52.662;5.196;2023-03-04T03:32:35;2.83;;;2.83;;
24787;SDS011;12883;52.662;5.196;2023-03-04T03:35:00;2.50;;;2.50;;
24787;SDS011;12883;52.662;5.196;2023-03-04T03:37:25;2.67;;;2.67;;
24787;SDS011;12883;52.662;5.196;2023-03-04T03:39:51;2.20;;;2.20;;
24787;SDS011;12883;52.662;5.196;2023-03-04T03:42:16;2.80;;;2.80;;
24787;SDS011;12883;52.662;5.196;2023-03-04T03:44:41;2.87;;;2.87;;
24787;SDS011;12883;52.662;5.196;2023-03-04T03:47:07;2.20;;;2.20;;
24787;SDS011;12883;52.662;5.196;2023-03-04T03:49:32;2.87;;;2.87;;
24787;SDS011;12883;52.662;5.196;2023-03-04T03:51:58;2.13;;;2.13;;
24787;SDS011;12883;52.662;5.196;2023-03-04T03:54:23;2.40;;;2.40;;
24787;SDS011;12883;52.662;5.196;2023-03-04T03:56:48;1.97;;;1.97;;
24787;SDS011;12883;52.662;5.196;2023-03-04T03:59:14;3.37;;;3.27;;
24787;SDS011;12883;52.662;5.196;2023-03-04T04:01:39;2.07;;;2.07;;
24787;SDS011;12883;52.662;5.196;2023-03-04T04:04:04;3.90;;;3.90;;
24787;SDS011;12883;52.662;5.196;2023-03-04T04:06:30;2.17;;;2.17;;
24787;SDS011;12883;52.662;5.196;2023-03-04T04:08:55;2.53;;;2.53;;
24787;SDS011;12883;52.662;5.196;2023-03-04T04:11:20;2.37;;;2.37;;
24787;SDS011;12883;52.662;5.196;2023-03-04T04:13:46;2.53;;;2.53;;
24787;SDS011;12883;52.662;5.196;2023-03-04T04:16:11;2.33;;;2.33;;
24787;SDS011;12883;52.662;5.196;2023-03-04T04:18:37;2.10;;;2.10;;
24787;SDS011;12883;52.662;5.196;2023-03-04T04:21:02;2.20;;;2.20;;
24787;SDS011;12883;52.662;5.196;2023-03-04T04:23:28;2.53;;;2.53;;
24787;SDS011;12883;52.662;5.196;2023-03-04T04:25:54;2.50;;;2.50;;
24787;SDS011;12883;52.662;5.196;2023-03-04T04:28:21;2.03;;;2.03;;
24787;SDS011;12883;52.662;5.196;2023-03-04T04:30:46;2.93;;;2.93;;
24787;SDS011;12883;52.662;5.196;2023-03-04T04:33:11;2.23;;;2.23;;
24787;SDS011;12883;52.662;5.196;2023-03-04T04:35:37;1.90;;;1.90;;
24787;SDS011;12883;52.662;5.196;2023-03-04T04:38:03;1.83;;;1.83;;
24787;SDS011;12883;52.662;5.196;2023-03-04T04:40:29;1.47;;;1.47;;
24787;SDS011;12883;52.662;5.196;2023-03-04T04:42:54;2.30;;;2.30;;
24787;SDS011;12883;52.662;5.196;2023-03-04T04:45:20;3.00;;;3.00;;
24787;SDS011;12883;52.662;5.196;2023-03-04T04:47:48;3.53;;;3.53;;
24787;SDS011;12883;52.662;5.196;2023-03-04T04:50:14;2.27;;;2.27;;
24787;SDS011;12883;52.662;5.196;2023-03-04T04:52:39;2.20;;;2.20;;
24787;SDS011;12883;52.662;5.196;2023-03-04T04:55:05;1.80;;;1.80;;
24787;SDS011;12883;52.662;5.196;2023-03-04T04:57:31;1.97;;;1.97;;
24787;SDS011;12883;52.662;5.196;2023-03-04T04:59:57;2.70;;;2.70;;
24787;SDS011;12883;52.662;5.196;2023-03-04T05:02:22;1.93;;;1.93;;
24787;SDS011;12883;52.662;5.196;2023-03-04T05:04:48;1.70;;;1.70;;
24787;SDS011;12883;52.662;5.196;2023-03-04T05:07:13;2.43;;;2.43;;
24787;SDS011;12883;52.662;5.196;2023-03-04T05:09:38;2.37;;;2.37;;
24787;SDS011;12883;52.662;5.196;2023-03-04T05:12:04;1.60;;;1.60;;
24787;SDS011;12883;52.662;5.196;2023-03-04T05:14:29;2.30;;;2.30;;
24787;SDS011;12883;52.662;5.196;2023-03-04T05:16:55;2.17;;;2.17;;
24787;SDS011;12883;52.662;5.196;2023-03-04T05:19:20;1.70;;;1.70;;
24787;SDS011;12883;52.662;5.196;2023-03-04T05:21:46;2.43;;;2.43;;
24787;SDS011;12883;52.662;5.196;2023-03-04T05:24:11;2.40;;;2.40;;
24787;SDS011;12883;52.662;5.196;2023-03-04T05:26:36;2.03;;;2.03;;
24787;SDS011;12883;52.662;5.196;2023-03-04T05:29:02;2.17;;;2.17;;
24787;SDS011;12883;52.662;5.196;2023-03-04T05:31:28;2.33;;;2.33;;
24787;SDS011;12883;52.662;5.196;2023-03-04T05:33:53;2.33;;;2.33;;
24787;SDS011;12883;52.662;5.196;2023-03-04T05:36:19;1.77;;;1.77;;
24787;SDS011;12883;52.662;5.196;2023-03-04T05:38:44;1.43;;;1.43;;
24787;SDS011;12883;52.662;5.196;2023-03-04T05:41:09;1.80;;;1.80;;
24787;SDS011;12883;52.662;5.196;2023-03-04T05:43:35;1.40;;;1.40;;
24787;SDS011;12883;52.662;5.196;2023-03-04T05:46:01;1.37;;;1.37;;
24787;SDS011;12883;52.662;5.196;2023-03-04T05:48:27;1.33;;;1.33;;
24787;SDS011;12883;52.662;5.196;2023-03-04T05:50:56;1.13;;;1.13;;
24787;SDS011;12883;52.662;5.196;2023-03-04T05:53:23;1.50;;;1.50;;
24787;SDS011;12883;52.662;5.196;2023-03-04T05:55:49;0.93;;;0.93;;
24787;SDS011;12883;52.662;5.196;2023-03-04T05:58:15;1.10;;;1.10;;
24787;SDS011;12883;52.662;5.196;2023-03-04T06:00:42;1.57;;;1.57;;
24787;SDS011;12883;52.662;5.196;2023-03-04T06:03:12;1.33;;;1.33;;
24787;SDS011;12883;52.662;5.196;2023-03-04T06:05:39;1.43;;;1.43;;
24787;SDS011;12883;52.662;5.196;2023-03-04T06:08:04;1.20;;;1.20;;
24787;SDS011;12883;52.662;5.196;2023-03-04T06:10:30;1.13;;;1.13;;
24787;SDS011;12883;52.662;5.196;2023-03-04T06:12:55;1.10;;;1.10;;
24787;SDS011;12883;52.662;5.196;2023-03-04T06:15:20;0.90;;;0.90;;
24787;SDS011;12883;52.662;5.196;2023-03-04T06:17:46;1.03;;;1.03;;
24787;SDS011;12883;52.662;5.196;2023-03-04T06:20:11;1.17;;;1.17;;
24787;SDS011;12883;52.662;5.196;2023-03-04T06:22:37;0.70;;;0.70;;
24787;SDS011;12883;52.662;5.196;2023-03-04T06:25:02;1.20;;;1.20;;
24787;SDS011;12883;52.662;5.196;2023-03-04T06:27:28;1.03;;;1.03;;
24787;SDS011;12883;52.662;5.196;2023-03-04T06:29:54;1.20;;;1.20;;
24787;SDS011;12883;52.662;5.196;2023-03-04T06:32:19;1.50;;;1.50;;
24787;SDS011;12883;52.662;5.196;2023-03-04T06:34:44;0.87;;;0.87;;
24787;SDS011;12883;52.662;5.196;2023-03-04T06:37:10;1.00;;;1.00;;
24787;SDS011;12883;52.662;5.196;2023-03-04T06:39:35;1.20;;;1.20;;
24787;SDS011;12883;52.662;5.196;2023-03-04T06:42:01;1.10;;;1.10;;
24787;SDS011;12883;52.662;5.196;2023-03-04T06:44:26;0.93;;;0.93;;
24787;SDS011;12883;52.662;5.196;2023-03-04T06:46:51;0.90;;;0.90;;
24787;SDS011;12883;52.662;5.196;2023-03-04T06:49:17;1.43;;;1.43;;
24787;SDS011;12883;52.662;5.196;2023-03-04T06:51:42;1.60;;;1.60;;
24787;SDS011;12883;52.662;5.196;2023-03-04T06:54:08;1.20;;;1.20;;
24787;SDS011;12883;52.662;5.196;2023-03-04T06:56:34;1.27;;;1.27;;
24787;SDS011;12883;52.662;5.196;2023-03-04T06:59:00;1.77;;;1.77;;
24787;SDS011;12883;52.662;5.196;2023-03-04T07:01:26;1.20;;;1.20;;
24787;SDS011;12883;52.662;5.196;2023-03-04T07:03:52;1.30;;;1.30;;
24787;SDS011;12883;52.662;5.196;2023-03-04T07:06:20;1.30;;;1.30;;
24787;SDS011;12883;52.662;5.196;2023-03-04T07:08:47;1.67;;;1.67;;
24787;SDS011;12883;52.662;5.196;2023-03-04T07:11:12;1.50;;;1.50;;
24787;SDS011;12883;52.662;5.196;2023-03-04T07:13:38;1.70;;;1.70;;
24787;SDS011;12883;52.662;5.196;2023-03-04T07:16:05;1.80;;;1.80;;
24787;SDS011;12883;52.662;5.196;2023-03-04T07:18:31;1.47;;;1.47;;
24787;SDS011;12883;52.662;5.196;2023-03-04T07:20:57;1.10;;;1.10;;
24787;SDS011;12883;52.662;5.196;2023-03-04T07:23:22;1.70;;;1.70;;
24787;SDS011;12883;52.662;5.196;2023-03-04T07:25:48;1.47;;;1.47;;
24787;SDS011;12883;52.662;5.196;2023-03-04T07:28:14;1.60;;;1.60;;
24787;SDS011;12883;52.662;5.196;2023-03-04T07:30:40;1.50;;;1.50;;
24787;SDS011;12883;52.662;5.196;2023-03-04T07:33:05;1.63;;;1.63;;
24787;SDS011;12883;52.662;5.196;2023-03-04T07:35:30;1.60;;;1.60;;
24787;SDS011;12883;52.662;5.196;2023-03-04T07:37:56;1.50;;;1.50;;
24787;SDS011;12883;52.662;5.196;2023-03-04T07:40:21;1.93;;;1.93;;
24787;SDS011;12883;52.662;5.196;2023-03-04T07:42:50;1.70;;;1.70;;
24787;SDS011;12883;52.662;5.196;2023-03-04T07:45:16;1.60;;;1.60;;
24787;SDS011;12883;52.662;5.196;2023-03-04T07:47:41;1.40;;;1.40;;
24787;SDS011;12883;52.662;5.196;2023-03-04T07:50:07;2.30;;;2.30;;
24787;SDS011;12883;52.662;5.196;2023-03-04T07:52:37;1.70;;;1.70;;
24787;SDS011;12883;52.662;5.196;2023-03-04T07:55:03;1.57;;;1.57;;
24787;SDS011;12883;52.662;5.196;2023-03-04T07:57:29;1.77;;;1.77;;
24787;SDS011;12883;52.662;5.196;2023-03-04T07:59:54;1.63;;;1.63;;
24787;SDS011;12883;52.662;5.196;2023-03-04T08:02:20;1.47;;;1.47;;
24787;SDS011;12883;52.662;5.196;2023-03-04T08:04:45;1.27;;;1.27;;
24787;SDS011;12883;52.662;5.196;2023-03-04T08:07:11;0.80;;;0.80;;
24787;SDS011;12883;52.662;5.196;2023-03-04T08:09:36;1.17;;;1.17;;
24787;SDS011;12883;52.662;5.196;2023-03-04T08:12:01;0.80;;;0.80;;
24787;SDS011;12883;52.662;5.196;2023-03-04T08:14:27;1.17;;;1.17;;
24787;SDS011;12883;52.662;5.196;2023-03-04T08:16:52;1.47;;;1.47;;
24787;SDS011;12883;52.662;5.196;2023-03-04T08:19:17;0.80;;;0.80;;
24787;SDS011;12883;52.662;5.196;2023-03-04T08:21:43;0.90;;;0.90;;
24787;SDS011;12883;52.662;5.196;2023-03-04T08:24:09;1.33;;;1.33;;
24787;SDS011;12883;52.662;5.196;2023-03-04T08:26:39;1.17;;;1.17;;
24787;SDS011;12883;52.662;5.196;2023-03-04T08:29:07;1.37;;;1.37;;
24787;SDS011;12883;52.662;5.196;2023-03-04T08:31:34;1.00;;;1.00;;
24787;SDS011;12883;52.662;5.196;2023-03-04T08:34:01;1.70;;;1.70;;
24787;SDS011;12883;52.662;5.196;2023-03-04T08:36:27;1.40;;;1.40;;
24787;SDS011;12883;52.662;5.196;2023-03-04T08:38:53;1.17;;;1.17;;
24787;SDS011;12883;52.662;5.196;2023-03-04T08:41:18;1.60;;;1.60;;
24787;SDS011;12883;52.662;5.196;2023-03-04T08:43:44;1.63;;;1.63;;
24787;SDS011;12883;52.662;5.196;2023-03-04T08:46:09;1.53;;;1.53;;
24787;SDS011;12883;52.662;5.196;2023-03-04T08:48:35;1.50;;;1.50;;
24787;SDS011;12883;52.662;5.196;2023-03-04T08:51:01;2.37;;;2.37;;
24787;SDS011;12883;52.662;5.196;2023-03-04T08:53:31;1.67;;;1.67;;
24787;SDS011;12883;52.662;5.196;2023-03-04T08:55:56;1.60;;;1.60;;
24787;SDS011;12883;52.662;5.196;2023-03-04T08:58:22;2.37;;;2.37;;
24787;SDS011;12883;52.662;5.196;2023-03-04T09:00:47;1.50;;;1.50;;
24787;SDS011;12883;52.662;5.196;2023-03-04T09:03:13;1.20;;;1.20;;
24787;SDS011;12883;52.662;5.196;2023-03-04T09:05:40;1.63;;;1.63;;
24787;SDS011;12883;52.662;5.196;2023-03-04T09:08:06;1.97;;;1.97;;
24787;SDS011;12883;52.662;5.196;2023-03-04T09:10:32;1.77;;;1.77;;
24787;SDS011;12883;52.662;5.196;2023-03-04T09:12:57;2.13;;;2.13;;
24787;SDS011;12883;52.662;5.196;2023-03-04T09:15:23;1.57;;;1.57;;
24787;SDS011;12883;52.662;5.196;2023-03-04T09:17:48;2.03;;;2.03;;
24787;SDS011;12883;52.662;5.196;2023-03-04T09:20:13;2.03;;;2.03;;
24787;SDS011;12883;52.662;5.196;2023-03-04T09:22:39;1.90;;;1.90;;
24787;SDS011;12883;52.662;5.196;2023-03-04T09:25:06;1.70;;;1.70;;
24787;SDS011;12883;52.662;5.196;2023-03-04T09:27:32;1.80;;;1.80;;
24787;SDS011;12883;52.662;5.196;2023-03-04T09:29:57;1.93;;;1.93;;
24787;SDS011;12883;52.662;5.196;2023-03-04T09:32:22;1.40;;;1.40;;
24787;SDS011;12883;52.662;5.196;2023-03-04T09:34:48;2.00;;;2.00;;
24787;SDS011;12883;52.662;5.196;2023-03-04T09:37:13;1.70;;;1.70;;
24787;SDS011;12883;52.662;5.196;2023-03-04T09:39:38;1.87;;;1.87;;
24787;SDS011;12883;52.662;5.196;2023-03-04T09:42:05;2.00;;;2.00;;
24787;SDS011;12883;52.662;5.196;2023-03-04T09:44:34;2.33;;;2.33;;
24787;SDS011;12883;52.662;5.196;2023-03-04T09:47:09;1.73;;;1.73;;
24787;SDS011;12883;52.662;5.196;2023-03-04T09:49:38;2.30;;;2.30;;
24787;SDS011;12883;52.662;5.196;2023-03-04T09:52:50;1.93;;;1.93;;
24787;SDS011;12883;52.662;5.196;2023-03-04T09:55:20;1.83;;;1.83;;
24787;SDS011;12883;52.662;5.196;2023-03-04T10:00:54;1.73;;;1.73;;
24787;SDS011;12883;52.662;5.196;2023-03-04T10:03:23;1.97;;;1.97;;
24787;SDS011;12883;52.662;5.196;2023-03-04T10:05:54;1.83;;;1.83;;
24787;SDS011;12883;52.662;5.196;2023-03-04T10:11:36;1.20;;;1.20;;
24787;SDS011;12883;52.662;5.196;2023-03-04T10:14:20;1.70;;;1.70;;
24787;SDS011;12883;52.662;5.196;2023-03-04T10:20:10;2.10;;;2.10;;
24787;SDS011;12883;52.662;5.196;2023-03-04T10:22:46;2.10;;;2.10;;
24787;SDS011;12883;52.662;5.196;2023-03-04T10:25:18;2.43;;;2.43;;
24787;SDS011;12883;52.662;5.196;2023-03-04T10:27:50;2.17;;;2.17;;
24787;SDS011;12883;52.662;5.196;2023-03-04T10:33:11;2.83;;;2.83;;
24787;SDS011;12883;52.662;5.196;2023-03-04T10:35:38;2.37;;;2.37;;
24787;SDS011;12883;52.662;5.196;2023-03-04T10:38:07;2.80;;;2.80;;
24787;SDS011;12883;52.662;5.196;2023-03-04T10:40:37;3.73;;;3.63;;
24787;SDS011;12883;52.662;5.196;2023-03-04T10:43:04;3.17;;;3.17;;
24787;SDS011;12883;52.662;5.196;2023-03-04T10:45:32;3.13;;;3.13;;
24787;SDS011;12883;52.662;5.196;2023-03-04T10:48:03;3.27;;;3.27;;
24787;SDS011;12883;52.662;5.196;2023-03-04T10:50:29;4.20;;;4.10;;
24787;SDS011;12883;52.662;5.196;2023-03-04T10:52:56;3.37;;;3.37;;
24787;SDS011;12883;52.662;5.196;2023-03-04T10:55:23;3.57;;;3.57;;
24787;SDS011;12883;52.662;5.196;2023-03-04T10:57:52;2.90;;;2.90;;
24787;SDS011;12883;52.662;5.196;2023-03-04T11:00:24;3.47;;;3.40;;
24787;SDS011;12883;52.662;5.196;2023-03-04T11:02:52;3.03;;;3.03;;
24787;SDS011;12883;52.662;5.196;2023-03-04T11:05:46;2.60;;;2.60;;
24787;SDS011;12883;52.662;5.196;2023-03-04T11:08:19;2.23;;;2.23;;
24787;SDS011;12883;52.662;5.196;2023-03-04T11:10:46;3.60;;;3.60;;
24787;SDS011;12883;52.662;5.196;2023-03-04T11:18:15;3.60;;;3.50;;
24787;SDS011;12883;52.662;5.196;2023-03-04T11:20:44;4.53;;;4.43;;
24787;SDS011;12883;52.662;5.196;2023-03-04T11:25:46;4.50;;;4.40;;
24787;SDS011;12883;52.662;5.196;2023-03-04T11:31:00;4.37;;;4.27;;
24787;SDS011;12883;52.662;5.196;2023-03-04T11:36:33;3.97;;;3.90;;
24787;SDS011;12883;52.662;5.196;2023-03-04T11:39:12;5.50;;;5.40;;
24787;SDS011;12883;52.662;5.196;2023-03-04T11:41:50;5.30;;;5.20;;
24787;SDS011;12883;52.662;5.196;2023-03-04T11:44:21;3.37;;;3.37;;
24787;SDS011;12883;52.662;5.196;2023-03-04T11:46:56;4.03;;;3.93;;
24787;SDS011;12883;52.662;5.196;2023-03-04T11:49:46;3.33;;;3.33;;
24787;SDS011;12883;52.662;5.196;2023-03-04T11:55:41;2.93;;;2.93;;
24787;SDS011;12883;52.662;5.196;2023-03-04T12:11:21;3.43;;;3.43;;
24787;SDS011;12883;52.662;5.196;2023-03-04T12:19:17;2.33;;;2.33;;
24787;SDS011;12883;52.662;5.196;2023-03-04T12:27:41;1.80;;;1.80;;
24787;SDS011;12883;52.662;5.196;2023-03-04T12:40:44;1.40;;;1.40;;
24787;SDS011;12883;52.662;5.196;2023-03-04T12:48:38;1.37;;;1.37;;
24787;SDS011;12883;52.662;5.196;2023-03-04T12:54:06;2.20;;;2.20;;
24787;SDS011;12883;52.662;5.196;2023-03-04T12:59:21;1.77;;;1.77;;
24787;SDS011;12883;52.662;5.196;2023-03-04T13:02:39;1.30;;;1.30;;
24787;SDS011;12883;52.662;5.196;2023-03-04T13:07:20;1.70;;;1.70;;
24787;SDS011;12883;52.662;5.196;2023-03-04T13:09:51;1.77;;;1.77;;
24787;SDS011;12883;52.662;5.196;2023-03-04T13:12:23;1.50;;;1.50;;
24787;SDS011;12883;52.662;5.196;2023-03-04T13:17:36;1.63;;;1.63;;
24787;SDS011;12883;52.662;5.196;2023-03-04T13:22:54;1.77;;;1.77;;
24787;SDS011;12883;52.662;5.196;2023-03-04T13:35:47;1.30;;;1.30;;
24787;SDS011;12883;52.662;5.196;2023-03-04T13:43:35;1.83;;;1.83;;
24787;SDS011;12883;52.662;5.196;2023-03-04T13:51:22;1.57;;;1.57;;
24787;SDS011;12883;52.662;5.196;2023-03-04T13:59:22;1.57;;;1.57;;
24787;SDS011;12883;52.662;5.196;2023-03-04T14:04:39;1.37;;;1.37;;
24787;SDS011;12883;52.662;5.196;2023-03-04T14:07:20;1.43;;;1.43;;
24787;SDS011;12883;52.662;5.196;2023-03-04T14:12:57;2.23;;;2.23;;
24787;SDS011;12883;52.662;5.196;2023-03-04T14:15:25;1.50;;;1.50;;
24787;SDS011;12883;52.662;5.196;2023-03-04T14:17:53;1.80;;;1.80;;
24787;SDS011;12883;52.662;5.196;2023-03-04T14:22:49;1.50;;;1.50;;
24787;SDS011;12883;52.662;5.196;2023-03-04T14:27:43;2.93;;;2.93;;
24787;SDS011;12883;52.662;5.196;2023-03-04T14:32:43;3.30;;;3.23;;
24787;SDS011;12883;52.662;5.196;2023-03-04T14:35:26;3.17;;;3.17;;
24787;SDS011;12883;52.662;5.196;2023-03-04T14:40:28;2.97;;;2.97;;
24787;SDS011;12883;52.662;5.196;2023-03-04T14:42:58;2.97;;;2.97;;
24787;SDS011;12883;52.662;5.196;2023-03-04T14:45:28;2.10;;;2.10;;
24787;SDS011;12883;52.662;5.196;2023-03-04T14:47:55;3.20;;;3.20;;
24787;SDS011;12883;52.662;5.196;2023-03-04T14:50:27;2.23;;;2.23;;
24787;SDS011;12883;52.662;5.196;2023-03-04T14:55:32;2.17;;;2.17;;
24787;SDS011;12883;52.662;5.196;2023-03-04T14:58:08;3.07;;;3.07;;
24787;SDS011;12883;52.662;5.196;2023-03-04T15:00:44;2.73;;;2.73;;
24787;SDS011;12883;52.662;5.196;2023-03-04T15:05:50;2.17;;;2.17;;
24787;SDS011;12883;52.662;5.196;2023-03-04T15:08:24;2.50;;;2.50;;
24787;SDS011;12883;52.662;5.196;2023-03-04T15:10:56;3.30;;;3.30;;
24787;SDS011;12883;52.662;5.196;2023-03-04T15:13:39;2.40;;;2.40;;
24787;SDS011;12883;52.662;5.196;2023-03-04T15:16:10;2.23;;;2.23;;
24787;SDS011;12883;52.662;5.196;2023-03-04T15:18:37;2.33;;;2.33;;
24787;SDS011;12883;52.662;5.196;2023-03-04T15:23:43;3.00;;;3.00;;
24787;SDS011;12883;52.662;5.196;2023-03-04T15:26:09;3.10;;;3.10;;
24787;SDS011;12883;52.662;5.196;2023-03-04T15:28:37;3.40;;;3.40;;
24787;SDS011;12883;52.662;5.196;2023-03-04T15:31:04;4.70;;;4.60;;
24787;SDS011;12883;52.662;5.196;2023-03-04T15:33:30;3.10;;;3.10;;
24787;SDS011;12883;52.662;5.196;2023-03-04T15:35:59;3.10;;;3.10;;
24787;SDS011;12883;52.662;5.196;2023-03-04T15:38:27;3.60;;;3.60;;
24787;SDS011;12883;52.662;5.196;2023-03-04T15:40:53;3.10;;;3.10;;
24787;SDS011;12883;52.662;5.196;2023-03-04T15:43:20;3.67;;;3.67;;
24787;SDS011;12883;52.662;5.196;2023-03-04T15:45:47;3.07;;;3.07;;
24787;SDS011;12883;52.662;5.196;2023-03-04T15:48:14;3.20;;;3.20;;
24787;SDS011;12883;52.662;5.196;2023-03-04T15:51:16;3.43;;;3.43;;
24787;SDS011;12883;52.662;5.196;2023-03-04T15:53:43;3.43;;;3.43;;
24787;SDS011;12883;52.662;5.196;2023-03-04T15:56:13;3.80;;;3.80;;
24787;SDS011;12883;52.662;5.196;2023-03-04T15:58:41;1.90;;;1.90;;
24787;SDS011;12883;52.662;5.196;2023-03-04T16:01:09;2.17;;;2.17;;
24787;SDS011;12883;52.662;5.196;2023-03-04T16:03:40;2.10;;;2.10;;
24787;SDS011;12883;52.662;5.196;2023-03-04T16:06:07;2.90;;;2.90;;
24787;SDS011;12883;52.662;5.196;2023-03-04T16:08:37;2.90;;;2.90;;
24787;SDS011;12883;52.662;5.196;2023-03-04T16:11:03;3.20;;;3.20;;
24787;SDS011;12883;52.662;5.196;2023-03-04T16:13:29;2.57;;;2.57;;
24787;SDS011;12883;52.662;5.196;2023-03-04T16:15:54;2.57;;;2.57;;
24787;SDS011;12883;52.662;5.196;2023-03-04T16:18:20;2.33;;;2.33;;
24787;SDS011;12883;52.662;5.196;2023-03-04T16:20:46;1.97;;;1.97;;
24787;SDS011;12883;52.662;5.196;2023-03-04T16:23:15;3.20;;;3.20;;
24787;SDS011;12883;52.662;5.196;2023-03-04T16:25:43;2.53;;;2.53;;
24787;SDS011;12883;52.662;5.196;2023-03-04T16:28:10;2.60;;;2.60;;
24787;SDS011;12883;52.662;5.196;2023-03-04T16:30:36;3.20;;;3.20;;
24787;SDS011;12883;52.662;5.196;2023-03-04T16:33:01;2.47;;;2.47;;
24787;SDS011;12883;52.662;5.196;2023-03-04T16:35:26;2.83;;;2.83;;
24787;SDS011;12883;52.662;5.196;2023-03-04T16:37:53;2.80;;;2.80;;
24787;SDS011;12883;52.662;5.196;2023-03-04T16:40:19;3.20;;;3.20;;
24787;SDS011;12883;52.662;5.196;2023-03-04T16:42:50;3.40;;;3.40;;
24787;SDS011;12883;52.662;5.196;2023-03-04T16:45:16;4.00;;;4.00;;
24787;SDS011;12883;52.662;5.196;2023-03-04T16:47:46;2.77;;;2.77;;
24787;SDS011;12883;52.662;5.196;2023-03-04T16:50:15;3.20;;;3.20;;
24787;SDS011;12883;52.662;5.196;2023-03-04T16:52:46;2.93;;;2.93;;
24787;SDS011;12883;52.662;5.196;2023-03-04T16:55:17;2.20;;;2.20;;
24787;SDS011;12883;52.662;5.196;2023-03-04T16:57:54;2.87;;;2.87;;
24787;SDS011;12883;52.662;5.196;2023-03-04T17:00:22;2.40;;;2.40;;
24787;SDS011;12883;52.662;5.196;2023-03-04T17:02:59;2.17;;;2.17;;
24787;SDS011;12883;52.662;5.196;2023-03-04T17:05:26;2.37;;;2.37;;
24787;SDS011;12883;52.662;5.196;2023-03-04T17:07:53;2.93;;;2.93;;
24787;SDS011;12883;52.662;5.196;2023-03-04T17:10:19;2.77;;;2.77;;